createdAt,value
2023-04-30T00:02:00.516Z,26.70
2023-04-30T00:04:29.092Z,26.70
2023-04-30T00:06:57.934Z,26.70
2023-04-30T00:09:26.547Z,26.80
2023-04-30T00:11:54.975Z,26.80
2023-04-30T00:14:23.547Z,26.70
2023-04-30T00:16:51.970Z,26.60
2023-04-30T00:19:20.458Z,26.70
2023-04-30T00:21:48.854Z,26.70
2023-04-30T00:24:17.235Z,26.70
2023-04-30T00:26:45.639Z,26.80
2023-04-30T00:29:14.008Z,26.70
2023-04-30T00:31:42.760Z,26.80
2023-04-30T00:34:11.511Z,26.70
2023-04-30T00:36:41.362Z,26.70
2023-04-30T00:39:09.921Z,26.70
2023-04-30T00:41:38.411Z,26.60
2023-04-30T00:44:07.416Z,26.60
2023-04-30T00:46:35.794Z,26.70
2023-04-30T00:49:05.799Z,26.60
2023-04-30T00:51:34.692Z,26.60
2023-04-30T00:54:04.203Z,26.50
2023-04-30T00:56:33.405Z,26.60
2023-04-30T00:59:02.130Z,26.60
2023-04-30T01:01:30.934Z,26.50
2023-04-30T01:03:59.722Z,26.50
2023-04-30T01:06:29.045Z,26.50
2023-04-30T01:08:58.164Z,26.40
2023-04-30T01:11:55.962Z,26.50
2023-04-30T01:14:39.568Z,26.30
2023-04-30T01:17:36.378Z,26.30
2023-04-30T01:20:05.352Z,26.20
2023-04-30T01:23:10.917Z,26.20
2023-04-30T01:25:42.108Z,26.20
2023-04-30T01:28:15.264Z,26.10
2023-04-30T01:30:47.327Z,26.10
2023-04-30T01:33:15.868Z,26.00
2023-04-30T01:35:49.982Z,26.00
2023-04-30T01:38:24.428Z,26.00
2023-04-30T01:40:56.893Z,25.80
2023-04-30T01:43:31.577Z,25.70
2023-04-30T01:46:09.025Z,25.60
2023-04-30T01:48:57.002Z,25.40
2023-04-30T01:51:47.409Z,25.40
2023-04-30T01:54:47.062Z,25.40
2023-04-30T01:57:24.182Z,25.30
2023-04-30T01:59:53.471Z,25.30
2023-04-30T02:02:22.169Z,25.20
2023-04-30T02:04:50.790Z,25.20
2023-04-30T02:07:51.736Z,25.00
2023-04-30T02:10:27.312Z,24.90
2023-04-30T02:12:56.551Z,24.90
2023-04-30T02:15:25.034Z,24.80
2023-04-30T02:17:53.498Z,24.60
2023-04-30T02:20:22.063Z,24.70
2023-04-30T02:22:50.479Z,24.70
2023-04-30T02:25:19.020Z,24.70
2023-04-30T02:27:47.606Z,24.60
2023-04-30T02:30:15.985Z,24.50
2023-04-30T02:32:47.766Z,24.50
2023-04-30T02:35:16.364Z,24.30
2023-04-30T02:37:44.744Z,24.40
2023-04-30T02:40:13.493Z,24.30
2023-04-30T02:42:41.913Z,24.10
2023-04-30T02:45:10.641Z,24.00
2023-04-30T02:47:39.160Z,23.90
2023-04-30T02:50:08.918Z,23.80
2023-04-30T02:52:37.402Z,23.70
2023-04-30T02:55:06.280Z,23.70
2023-04-30T02:57:34.657Z,23.60
2023-04-30T03:00:03.268Z,23.50
2023-04-30T03:02:32.008Z,23.40
2023-04-30T03:05:00.666Z,23.20
2023-04-30T03:07:29.644Z,23.20
2023-04-30T03:09:58.057Z,23.10
2023-04-30T03:12:26.423Z,22.80
2023-04-30T03:14:54.820Z,22.70
2023-04-30T03:17:24.454Z,22.70
2023-04-30T03:19:53.104Z,22.60
2023-04-30T03:22:24.509Z,22.40
2023-04-30T03:24:52.913Z,22.30
2023-04-30T03:27:21.745Z,22.10
2023-04-30T03:29:50.192Z,22.00
2023-04-30T03:32:18.624Z,21.90
2023-04-30T03:34:47.456Z,21.70
2023-04-30T03:37:15.868Z,21.50
2023-04-30T03:39:44.266Z,21.30
2023-04-30T03:42:12.629Z,21.00
2023-04-30T03:44:41.180Z,20.90
2023-04-30T03:47:09.632Z,20.90
2023-04-30T03:49:38.362Z,20.80
2023-04-30T03:52:07.334Z,20.70
2023-04-30T03:54:35.775Z,20.70
2023-04-30T03:57:05.319Z,20.60
2023-04-30T03:59:34.150Z,20.60
2023-04-30T04:02:02.866Z,20.50
2023-04-30T04:04:31.948Z,20.50
2023-04-30T04:07:00.591Z,20.40
2023-04-30T04:09:29.158Z,20.30
2023-04-30T04:11:58.696Z,20.30
2023-04-30T04:14:27.085Z,20.20
2023-04-30T04:16:55.503Z,20.20
2023-04-30T04:19:23.856Z,20.20
2023-04-30T04:21:52.481Z,20.10
2023-04-30T04:24:21.076Z,19.90
2023-04-30T04:26:49.572Z,19.80
2023-04-30T04:29:17.999Z,19.70
2023-04-30T04:31:46.710Z,19.60
2023-04-30T04:34:15.156Z,19.50
2023-04-30T04:36:43.969Z,19.40
2023-04-30T04:39:12.564Z,19.30
2023-04-30T04:41:40.959Z,19.30
2023-04-30T04:44:09.350Z,19.20
2023-04-30T04:46:39.354Z,19.10
2023-04-30T04:49:07.798Z,19.00
2023-04-30T04:51:36.549Z,18.90
2023-04-30T04:54:05.162Z,18.90
2023-04-30T04:56:33.568Z,18.80
2023-04-30T04:59:03.377Z,18.70
2023-04-30T05:01:31.951Z,18.70
2023-04-30T05:04:00.489Z,18.50
2023-04-30T05:06:29.593Z,18.40
2023-04-30T05:08:58.033Z,18.30
2023-04-30T05:11:26.572Z,18.20
2023-04-30T05:13:54.965Z,18.20
2023-04-30T05:16:23.358Z,18.30
2023-04-30T05:18:51.883Z,18.10
2023-04-30T05:21:20.276Z,18.00
2023-04-30T05:23:48.872Z,17.80
2023-04-30T05:26:17.347Z,17.50
2023-04-30T05:28:46.148Z,17.40
2023-04-30T05:31:14.584Z,17.40
2023-04-30T05:33:43.357Z,17.40
2023-04-30T05:36:12.336Z,17.40
2023-04-30T05:38:41.033Z,17.40
2023-04-30T05:41:11.266Z,17.30
2023-04-30T05:43:39.712Z,17.20
2023-04-30T05:46:08.113Z,17.00
2023-04-30T05:48:36.498Z,16.90
2023-04-30T05:51:06.474Z,16.90
2023-04-30T05:53:34.888Z,16.90
2023-04-30T05:56:03.267Z,16.80
2023-04-30T05:58:31.696Z,16.80
2023-04-30T06:01:00.534Z,16.80
2023-04-30T06:03:28.937Z,16.70
2023-04-30T06:05:57.451Z,16.40
2023-04-30T06:08:26.148Z,16.10
2023-04-30T06:10:54.590Z,16.20
2023-04-30T06:13:23.437Z,16.30
2023-04-30T06:15:51.827Z,16.20
2023-04-30T06:18:21.148Z,16.00
2023-04-30T06:20:49.592Z,15.80
2023-04-30T06:23:18.049Z,15.80
2023-04-30T06:25:46.483Z,15.90
2023-04-30T06:28:14.944Z,16.00
2023-04-30T06:30:43.402Z,15.90
2023-04-30T06:33:11.907Z,15.70
2023-04-30T06:35:41.403Z,15.40
2023-04-30T06:38:09.814Z,15.20
2023-04-30T06:40:38.440Z,15.10
2023-04-30T06:43:07.007Z,15.00
2023-04-30T06:45:36.203Z,14.90
2023-04-30T06:48:04.839Z,14.90
2023-04-30T06:50:33.446Z,14.90
2023-04-30T06:53:02.100Z,14.90
2023-04-30T06:55:30.554Z,14.80
2023-04-30T06:57:58.984Z,14.70
2023-04-30T07:00:27.385Z,14.70
2023-04-30T07:02:57.064Z,14.80
2023-04-30T07:05:25.572Z,14.80
2023-04-30T07:07:54.592Z,14.90
2023-04-30T07:10:23.121Z,15.00
2023-04-30T07:12:51.529Z,15.00
2023-04-30T07:15:19.992Z,15.00
2023-04-30T07:17:48.378Z,15.00
2023-04-30T07:20:17.075Z,15.00
2023-04-30T07:22:46.773Z,15.00
2023-04-30T07:25:15.711Z,15.00
2023-04-30T07:27:44.144Z,14.90
2023-04-30T07:30:12.781Z,14.40
2023-04-30T07:32:42.332Z,14.30
2023-04-30T07:35:11.411Z,14.20
2023-04-30T07:37:41.186Z,14.30
2023-04-30T07:40:21.973Z,14.20
2023-04-30T07:42:53.723Z,14.00
2023-04-30T07:45:22.253Z,14.10
2023-04-30T07:47:50.731Z,14.10
2023-04-30T07:50:19.481Z,14.00
2023-04-30T07:52:51.488Z,13.80
2023-04-30T07:55:20.005Z,13.70
2023-04-30T07:57:48.436Z,13.50
2023-04-30T08:00:18.314Z,13.40
2023-04-30T08:02:49.120Z,13.40
2023-04-30T08:05:17.946Z,13.30
2023-04-30T08:07:46.547Z,13.30
2023-04-30T08:10:15.025Z,13.30
2023-04-30T08:12:43.801Z,13.10
2023-04-30T08:15:12.471Z,13.10
2023-04-30T08:17:40.879Z,13.10
2023-04-30T08:20:10.347Z,13.10
2023-04-30T08:22:38.733Z,13.20
2023-04-30T08:25:07.549Z,13.10
2023-04-30T08:27:36.024Z,13.00
2023-04-30T08:30:04.678Z,13.00
2023-04-30T08:32:35.287Z,13.00
2023-04-30T08:35:08.136Z,13.10
2023-04-30T08:37:36.720Z,12.90
2023-04-30T08:40:05.634Z,12.90
2023-04-30T08:42:38.035Z,12.70
2023-04-30T08:45:07.774Z,12.70
2023-04-30T08:47:36.923Z,12.70
2023-04-30T08:50:06.527Z,12.40
2023-04-30T08:52:37.043Z,12.50
2023-04-30T08:55:09.616Z,12.50
2023-04-30T08:57:39.446Z,12.50
2023-04-30T09:00:08.700Z,12.30
2023-04-30T09:02:40.674Z,12.30
2023-04-30T09:05:14.157Z,12.30
2023-04-30T09:08:01.168Z,12.40
2023-04-30T09:10:35.479Z,12.10
2023-04-30T09:13:09.302Z,12.00
2023-04-30T09:15:39.963Z,11.90
2023-04-30T09:18:19.158Z,12.00
2023-04-30T09:21:02.025Z,11.90
2023-04-30T09:23:31.557Z,11.90
2023-04-30T09:26:01.811Z,11.90
2023-04-30T09:28:30.475Z,11.80
2023-04-30T09:30:59.444Z,11.80
2023-04-30T09:33:27.885Z,11.80
2023-04-30T09:35:56.425Z,11.80
2023-04-30T09:38:30.232Z,11.80
2023-04-30T09:41:03.043Z,11.90
2023-04-30T09:43:32.506Z,11.90
2023-04-30T09:46:01.560Z,12.00
2023-04-30T09:48:30.104Z,12.00
2023-04-30T09:50:58.820Z,12.00
2023-04-30T09:53:28.103Z,12.00
2023-04-30T09:56:03.754Z,11.90
2023-04-30T09:58:37.758Z,12.00
2023-04-30T10:01:13.370Z,12.00
2023-04-30T10:03:44.790Z,11.90
2023-04-30T10:06:17.029Z,12.00
2023-04-30T10:08:49.138Z,12.00
2023-04-30T10:11:22.387Z,12.00
2023-04-30T10:14:26.237Z,12.10
2023-04-30T10:17:08.759Z,12.10
2023-04-30T10:19:42.465Z,12.10
2023-04-30T10:22:11.911Z,12.10
2023-04-30T10:24:40.579Z,12.10
2023-04-30T10:27:09.147Z,12.10
2023-04-30T10:29:37.611Z,12.00
2023-04-30T10:32:07.529Z,12.00
2023-04-30T10:35:01.466Z,11.90
2023-04-30T10:38:02.025Z,11.90
2023-04-30T10:40:30.569Z,11.80
2023-04-30T10:43:00.780Z,11.80
2023-04-30T10:45:40.323Z,11.80
2023-04-30T10:48:09.124Z,11.80
2023-04-30T10:50:47.570Z,11.90
2023-04-30T10:53:19.370Z,11.90
2023-04-30T10:56:09.946Z,11.90
2023-04-30T10:58:40.339Z,11.90
2023-04-30T11:01:15.581Z,11.90
2023-04-30T11:04:04.779Z,11.90
2023-04-30T11:07:03.010Z,11.90
2023-04-30T11:09:39.017Z,12.00
2023-04-30T11:12:16.941Z,11.90
2023-04-30T11:14:47.127Z,11.90
2023-04-30T11:17:24.421Z,11.90
2023-04-30T11:19:54.651Z,11.80
2023-04-30T11:22:25.571Z,11.80
2023-04-30T11:25:00.666Z,11.80
2023-04-30T11:27:31.418Z,11.80
2023-04-30T11:30:00.480Z,11.70
2023-04-30T11:32:37.450Z,11.80
2023-04-30T11:35:07.529Z,11.80
2023-04-30T11:37:38.551Z,11.70
2023-04-30T11:40:14.843Z,11.60
2023-04-30T11:42:49.086Z,11.60
2023-04-30T11:45:18.588Z,11.60
2023-04-30T11:47:49.378Z,11.60
2023-04-30T11:50:28.179Z,11.60
2023-04-30T11:52:58.569Z,11.30
2023-04-30T11:55:28.841Z,11.40
2023-04-30T11:58:00.228Z,11.30
2023-04-30T12:00:30.759Z,11.20
2023-04-30T12:03:02.215Z,11.10
2023-04-30T12:05:31.689Z,11.00
2023-04-30T12:08:10.438Z,11.20
2023-04-30T12:10:38.848Z,11.30
2023-04-30T12:13:07.231Z,11.40
2023-04-30T12:15:35.678Z,11.30
2023-04-30T12:18:16.987Z,11.30
2023-04-30T12:20:45.673Z,11.30
2023-04-30T12:23:14.106Z,11.40
2023-04-30T12:25:44.601Z,11.40
2023-04-30T12:28:13.416Z,11.60
2023-04-30T12:30:44.507Z,11.70
2023-04-30T12:33:13.043Z,11.70
2023-04-30T12:35:45.144Z,11.70
2023-04-30T12:38:19.378Z,11.80
2023-04-30T12:40:50.836Z,11.80
2023-04-30T12:43:19.902Z,11.70
2023-04-30T12:45:52.996Z,11.70
2023-04-30T12:48:26.267Z,11.80
2023-04-30T12:51:03.623Z,11.90
2023-04-30T12:53:33.210Z,11.90
2023-04-30T12:56:16.310Z,11.90
2023-04-30T12:58:48.129Z,12.10
2023-04-30T13:01:22.413Z,12.10
2023-04-30T13:03:51.404Z,12.20
2023-04-30T13:06:21.071Z,12.10
2023-04-30T13:08:58.067Z,12.10
2023-04-30T13:11:27.886Z,12.10
2023-04-30T13:13:56.668Z,12.20
2023-04-30T13:16:25.978Z,12.40
2023-04-30T13:18:55.398Z,12.20
2023-04-30T13:21:25.647Z,12.20
2023-04-30T13:23:55.274Z,12.20
2023-04-30T13:26:25.363Z,12.20
2023-04-30T13:28:53.828Z,12.20
2023-04-30T13:31:23.033Z,12.30
2023-04-30T13:33:51.708Z,12.20
2023-04-30T13:36:20.123Z,12.20
2023-04-30T13:38:49.072Z,12.20
2023-04-30T13:41:17.475Z,12.40
2023-04-30T13:43:47.177Z,12.40
2023-04-30T13:46:16.004Z,12.40
2023-04-30T13:48:44.498Z,12.60
2023-04-30T13:51:12.931Z,12.50
2023-04-30T13:53:41.333Z,12.70
2023-04-30T13:56:11.028Z,12.80
2023-04-30T13:58:39.420Z,12.80
2023-04-30T14:01:08.159Z,12.60
2023-04-30T14:03:36.904Z,12.70
2023-04-30T14:06:06.742Z,12.80
2023-04-30T14:08:35.186Z,13.00
2023-04-30T14:11:03.644Z,13.10
2023-04-30T14:13:32.039Z,13.10
2023-04-30T14:16:00.694Z,13.10
2023-04-30T14:18:29.194Z,13.00
2023-04-30T14:20:57.616Z,13.20
2023-04-30T14:23:26.827Z,13.00
2023-04-30T14:25:55.436Z,13.20
2023-04-30T14:28:23.865Z,13.30
2023-04-30T14:30:52.266Z,13.30
2023-04-30T14:33:20.665Z,13.40
2023-04-30T14:35:49.147Z,13.50
2023-04-30T14:38:17.657Z,13.50
2023-04-30T14:40:46.112Z,13.40
2023-04-30T14:43:14.774Z,13.50
2023-04-30T14:45:43.190Z,13.60
2023-04-30T14:48:12.174Z,13.70
2023-04-30T14:50:40.671Z,13.80
2023-04-30T14:53:10.297Z,13.50
2023-04-30T14:55:40.050Z,13.60
2023-04-30T14:58:08.426Z,13.50
2023-04-30T15:00:37.204Z,13.60
2023-04-30T15:03:06.093Z,13.70
2023-04-30T15:05:34.820Z,13.70
2023-04-30T15:08:03.256Z,13.90
2023-04-30T15:10:31.704Z,13.50
2023-04-30T15:13:00.132Z,13.70
2023-04-30T15:15:29.979Z,13.90
2023-04-30T15:17:59.925Z,14.10
2023-04-30T15:20:28.422Z,14.20
2023-04-30T15:22:56.863Z,13.90
2023-04-30T15:25:25.485Z,13.90
2023-04-30T15:27:53.929Z,14.00
2023-04-30T15:30:22.801Z,13.60
2023-04-30T15:32:51.720Z,13.30
2023-04-30T15:35:20.174Z,13.70
2023-04-30T15:37:48.622Z,14.10
2023-04-30T15:40:17.107Z,14.30
2023-04-30T15:42:45.508Z,14.50
2023-04-30T15:45:14.115Z,14.50
2023-04-30T15:47:42.908Z,14.30
2023-04-30T15:50:11.659Z,14.20
2023-04-30T15:52:40.256Z,14.50
2023-04-30T15:55:09.915Z,14.70
2023-04-30T15:57:38.394Z,14.90
2023-04-30T16:00:07.598Z,14.70
2023-04-30T16:02:36.823Z,14.70
2023-04-30T16:05:06.334Z,14.60
2023-04-30T16:07:35.167Z,14.50
2023-04-30T16:10:04.612Z,14.80
2023-04-30T16:12:33.278Z,14.80
2023-04-30T16:15:01.820Z,15.00
2023-04-30T16:17:31.963Z,14.50
2023-04-30T16:20:01.336Z,14.50
2023-04-30T16:22:31.044Z,14.30
2023-04-30T16:24:59.516Z,14.20
2023-04-30T16:27:27.941Z,14.50
2023-04-30T16:29:56.800Z,14.60
2023-04-30T16:32:25.504Z,14.80
2023-04-30T16:34:53.940Z,15.00
2023-04-30T16:37:22.324Z,15.00
2023-04-30T16:39:50.858Z,15.20
2023-04-30T16:42:19.407Z,15.30
2023-04-30T16:44:47.804Z,15.50
2023-04-30T16:47:18.127Z,16.00
2023-04-30T16:49:46.601Z,16.20
2023-04-30T16:52:15.547Z,16.30
2023-04-30T16:54:44.173Z,16.50
2023-04-30T16:57:12.756Z,16.40
2023-04-30T16:59:41.128Z,16.60
2023-04-30T17:02:09.553Z,16.80
2023-04-30T17:04:38.143Z,16.70
2023-04-30T17:07:06.932Z,16.90
2023-04-30T17:09:35.321Z,18.20
2023-04-30T17:12:04.705Z,19.00
2023-04-30T17:14:33.193Z,19.00
2023-04-30T17:17:01.716Z,18.20
2023-04-30T17:19:30.115Z,18.40
2023-04-30T17:21:58.524Z,17.90
2023-04-30T17:24:26.930Z,17.90
2023-04-30T17:26:55.874Z,17.40
2023-04-30T17:29:24.423Z,17.50
2023-04-30T17:31:53.053Z,17.70
2023-04-30T17:34:21.709Z,17.50
2023-04-30T17:36:51.036Z,17.40
2023-04-30T17:39:19.699Z,16.90
2023-04-30T17:41:49.486Z,17.00
2023-04-30T17:44:18.166Z,16.60
2023-04-30T17:46:47.061Z,17.10
2023-04-30T17:49:15.603Z,17.80
2023-04-30T17:51:44.059Z,17.90
2023-04-30T17:54:12.462Z,17.90
2023-04-30T17:56:41.369Z,17.90
2023-04-30T17:59:09.876Z,17.50
2023-04-30T18:01:38.936Z,17.70
2023-04-30T18:04:09.897Z,17.70
2023-04-30T18:06:38.670Z,17.50
2023-04-30T18:09:07.213Z,17.20
2023-04-30T18:11:35.627Z,17.20
2023-04-30T18:14:05.511Z,16.90
2023-04-30T18:16:35.372Z,16.80
2023-04-30T18:19:04.925Z,16.80
2023-04-30T18:21:33.333Z,16.90
2023-04-30T18:24:01.767Z,17.00
2023-04-30T18:26:30.483Z,17.10
2023-04-30T18:28:59.057Z,16.30
2023-04-30T18:31:29.300Z,16.10
2023-04-30T18:33:57.800Z,16.10
2023-04-30T18:36:26.382Z,15.50
2023-04-30T18:38:55.047Z,15.50
2023-04-30T18:41:24.169Z,15.60
2023-04-30T18:43:52.751Z,16.10
2023-04-30T18:46:21.572Z,16.20
2023-04-30T18:48:49.989Z,16.40
2023-04-30T18:51:18.480Z,15.50
2023-04-30T18:53:48.438Z,15.20
2023-04-30T18:56:16.983Z,15.40
2023-04-30T18:58:48.565Z,15.70
2023-04-30T19:01:17.332Z,15.90
2023-04-30T19:03:45.787Z,16.30
2023-04-30T19:06:15.009Z,16.40
2023-04-30T19:08:45.624Z,16.40
2023-04-30T19:11:14.906Z,16.30
2023-04-30T19:13:43.296Z,16.40
2023-04-30T19:16:11.833Z,16.40
2023-04-30T19:18:40.585Z,16.40
2023-04-30T19:21:09.763Z,16.60
2023-04-30T19:23:39.282Z,16.60
2023-04-30T19:26:07.720Z,16.60
2023-04-30T19:28:36.130Z,16.60
2023-04-30T19:31:04.996Z,16.80
2023-04-30T19:33:39.054Z,16.70
2023-04-30T19:36:07.852Z,16.60
2023-04-30T19:38:36.549Z,16.80
2023-04-30T19:41:05.086Z,16.70
2023-04-30T19:43:33.507Z,16.80
2023-04-30T19:46:03.172Z,17.30
2023-04-30T19:48:32.328Z,17.60
2023-04-30T19:51:03.550Z,18.10
2023-04-30T19:53:32.274Z,18.00
2023-04-30T19:56:00.731Z,18.10
2023-04-30T19:58:29.159Z,18.00
2023-04-30T20:00:57.663Z,17.50
2023-04-30T20:03:26.224Z,17.70
2023-04-30T20:05:55.409Z,17.80
2023-04-30T20:08:24.863Z,17.90
2023-04-30T20:10:53.264Z,18.20
2023-04-30T20:13:23.477Z,18.40
2023-04-30T20:15:52.298Z,17.80
2023-04-30T20:18:20.746Z,17.70
2023-04-30T20:20:49.541Z,17.80
2023-04-30T20:23:18.687Z,17.40
2023-04-30T20:25:47.488Z,17.60
2023-04-30T20:28:17.557Z,17.40
2023-04-30T20:30:46.906Z,17.50
2023-04-30T20:33:16.190Z,17.60
2023-04-30T20:35:47.023Z,17.80
2023-04-30T20:38:19.757Z,17.90
2023-04-30T20:40:48.638Z,18.00
2023-04-30T20:43:18.001Z,18.00
2023-04-30T20:45:46.838Z,18.10
2023-04-30T20:48:16.073Z,18.10
2023-04-30T20:50:44.491Z,18.20
2023-04-30T20:53:13.255Z,18.50
2023-04-30T20:55:42.044Z,18.60
2023-04-30T20:58:10.669Z,19.00
2023-04-30T21:00:39.108Z,19.70
2023-04-30T21:03:07.813Z,20.00
2023-04-30T21:05:36.417Z,19.60
2023-04-30T21:08:04.971Z,19.70
2023-04-30T21:10:37.025Z,19.80
2023-04-30T21:13:06.466Z,19.70
2023-04-30T21:15:36.919Z,19.80
2023-04-30T21:18:05.427Z,19.10
2023-04-30T21:20:34.078Z,19.30
2023-04-30T21:23:04.058Z,19.90
2023-04-30T21:25:32.468Z,20.10
2023-04-30T21:28:00.866Z,19.60
2023-04-30T21:30:29.490Z,19.40
2023-04-30T21:32:59.276Z,19.50
2023-04-30T21:35:33.641Z,19.40
2023-04-30T21:38:02.090Z,18.70
2023-04-30T21:40:34.459Z,18.50
2023-04-30T21:43:02.972Z,18.40
2023-04-30T21:45:35.675Z,18.50
2023-04-30T21:48:04.472Z,18.50
2023-04-30T21:50:36.201Z,18.30
2023-04-30T21:53:04.603Z,18.00
2023-04-30T21:55:33.081Z,18.40
2023-04-30T21:58:01.582Z,18.80
2023-04-30T22:00:30.861Z,18.80
2023-04-30T22:02:59.427Z,18.50
2023-04-30T22:05:28.239Z,18.10
2023-04-30T22:07:57.280Z,18.40
2023-04-30T22:10:25.772Z,18.20
2023-04-30T22:12:54.187Z,18.10
2023-04-30T22:15:22.782Z,17.50
2023-04-30T22:17:51.305Z,17.70
2023-04-30T22:20:19.914Z,17.70
2023-04-30T22:22:51.693Z,17.90
2023-04-30T22:25:20.670Z,17.80
2023-04-30T22:27:49.837Z,17.90
2023-04-30T22:30:19.448Z,17.60
2023-04-30T22:32:47.965Z,17.60
2023-04-30T22:35:19.808Z,17.80
2023-04-30T22:37:49.861Z,17.90
2023-04-30T22:40:18.725Z,17.60
2023-04-30T22:42:47.749Z,17.60
2023-04-30T22:45:16.428Z,17.80
2023-04-30T22:47:45.793Z,18.00
2023-04-30T22:50:14.429Z,17.90
2023-04-30T22:52:43.099Z,18.10
2023-04-30T22:55:12.457Z,18.40
2023-04-30T22:57:41.067Z,18.50
2023-04-30T23:00:10.227Z,18.50
2023-04-30T23:02:38.760Z,18.70
2023-04-30T23:05:08.637Z,18.80
2023-04-30T23:07:37.629Z,18.70
2023-04-30T23:10:07.062Z,18.80
2023-04-30T23:12:36.458Z,18.90
2023-04-30T23:15:05.165Z,19.00
2023-04-30T23:17:33.659Z,19.10
2023-04-30T23:20:02.287Z,18.90
2023-04-30T23:22:30.845Z,19.10
2023-04-30T23:25:00.759Z,18.90
2023-04-30T23:27:29.571Z,19.00
2023-04-30T23:29:58.214Z,18.90
2023-04-30T23:32:27.105Z,19.10
2023-04-30T23:34:55.801Z,19.50
2023-04-30T23:37:24.272Z,19.40
2023-04-30T23:39:52.779Z,19.00
2023-04-30T23:42:21.332Z,18.90
2023-04-30T23:44:49.782Z,19.10
2023-04-30T23:47:18.185Z,19.00
2023-04-30T23:49:46.745Z,19.20
2023-04-30T23:52:15.292Z,19.30
2023-04-30T23:54:44.001Z,19.20
2023-04-30T23:57:12.479Z,19.40
2023-04-30T23:59:40.946Z,19.10
